Daisinmaru No.11 — JK5352 — position and weather

sailwx.info

Track history (hours):
 
Tides and Currents Weather Stations Pressure Air Temp Water Temp Dewpoint Dewpoint Depression Visibility Wind Speed Wind Dir Waves Ship Positions

Daisinmaru No.11

Last reported at 2018-Feb-21 06:31 UTC. Time now 2018-Feb-21 23:22 UTC.
Position N 35°28' E 139°60'.

Length 52 m.

MMSI: 431000667.

Date/timePositionNaut miles runAvg speedWind from/ knotsBaromVisibWave heightAir tempDewpointWater temp
2018-Feb-21 06:31N 35°28' E 139°60'0 0.0
2018-Feb-21 06:29N 35°28' E 139°60'0 0.0
2018-Feb-21 06:00N 35°28' E 139°60'0 0.0
2018-Feb-21 05:30N 35°28' E 139°60'0 0.0
2018-Feb-21 05:00N 35°28' E 139°60'0 0.0
2018-Feb-21 04:29N 35°28' E 139°60'0 0.0
2018-Feb-21 03:58N 35°28' E 139°60'0 0.0
2018-Feb-21 03:30N 35°28' E 139°60'0 0.0
2018-Feb-21 03:00N 35°28' E 139°60'0 0.0
2018-Feb-21 02:30N 35°28' E 139°60'0 0.0
2018-Feb-21 02:00N 35°28' E 139°60'0 0.0
2018-Feb-21 01:30N 35°28' E 139°60'0 0.0
2018-Feb-21 01:00N 35°28' E 139°60'0 0.0
2018-Feb-21 00:30N 35°28' E 139°60'0 0.0
2018-Feb-21 00:00N 35°28' E 139°60'0 0.1
2018-Feb-20 23:30N 35°27' E 139°60'0 0.0
2018-Feb-20 23:00N 35°27' E 139°60'0 0.0
2018-Feb-20 22:29N 35°27' E 139°60'0 0.0
2018-Feb-20 21:56N 35°27' E 139°60'0 0.1
2018-Feb-20 21:28N 35°27' E 139°60'1 0.0
2018-Feb-20 07:52N 35°28' E 139°59'2 6.8
2018-Feb-20 07:30N 35°30' E 139°57'9 9.8
2018-Feb-20 06:36N 35°34' E 139°48'1 8.3
2018-Feb-20 06:28N 35°35' E 139°47'0 0.3
2018-Feb-20 05:54N 35°35' E 139°46'0 0.0
2018-Feb-20 04:39N 35°35' E 139°46'0 0.0
2018-Feb-19 06:34N 35°35' E 139°46'0 0.0
2018-Feb-19 04:45N 35°35' E 139°46'0 0.0
2018-Feb-19 03:27N 35°35' E 139°46'0 0.0
2018-Feb-19 00:34N 35°35' E 139°46'0 0.1
2018-Feb-19 00:28N 35°35' E 139°46'0 0.0
2018-Feb-18 22:59N 35°35' E 139°46'4 9.2
2018-Feb-18 22:30N 35°33' E 139°51'5 9.7
2018-Feb-18 22:00N 35°30' E 139°56'  
2018-Feb-16 08:44N 35°27' E 139°60'0 0.0
2018-Feb-16 08:29N 35°27' E 139°60'0 0.0
2018-Feb-16 08:00N 35°27' E 139°60'0 0.0
2018-Feb-16 07:30N 35°27' E 139°60'0 0.0
2018-Feb-16 07:00N 35°27' E 139°60'0 0.0
2018-Feb-16 06:28N 35°27' E 139°60'0 0.0
2018-Feb-16 05:47N 35°27' E 139°60'0 0.0
2018-Feb-16 05:20N 35°27' E 139°60'0 0.0
2018-Feb-16 04:53N 35°27' E 139°60'0 0.0
2018-Feb-16 04:08N 35°27' E 139°60'0 0.0
2018-Feb-16 03:51N 35°27' E 139°60'1 2.9
2018-Feb-16 03:27N 35°28' E 139°59'10 8.6
2018-Feb-16 02:16N 35°34' E 139°48'2 0.0
2018-Feb-14 05:15N 35°35' E 139°46'0 0.0
2018-Feb-14 04:58N 35°35' E 139°46'0 0.0
2018-Feb-14 01:12N 35°35' E 139°46'0 0.0
2018-Feb-14 00:49N 35°35' E 139°46'0 0.0
2018-Feb-14 00:07N 35°35' E 139°46'0 0.0
2018-Feb-13 23:59N 35°35' E 139°46'2 3.9
2018-Feb-13 23:30N 35°34' E 139°49'710.7
2018-Feb-13 22:52N 35°34' E 139°57'410.7
2018-Feb-13 22:30N 35°33' E 140°02'3 0.3
2018-Feb-13 11:18N 35°32' E 140°06'0 0.0
2018-Feb-13 10:47N 35°32' E 140°06'0 0.0
2018-Feb-13 10:27N 35°32' E 140°06'0 0.0
2018-Feb-13 10:00N 35°32' E 140°06'0 0.0
2018-Feb-13 09:25N 35°32' E 140°06'0 0.0
2018-Feb-13 08:55N 35°32' E 140°06'0 0.2
2018-Feb-13 08:30N 35°32' E 140°06'4 8.0
2018-Feb-13 08:01N 35°33' E 140°01'5 9.2
2018-Feb-13 07:30N 35°34' E 139°55'  
Track history (hours):
 
Tides and Currents Weather Stations Pressure Air Temp Water Temp Dewpoint Dewpoint Depression Visibility Wind Speed Wind Dir Waves Ship Positions

Daisinmaru No.11

Last reported at 2018-Feb-21 06:31 UTC. Time now 2018-Feb-21 23:22 UTC.
Position N 35°28' E 139°60'.

Length 52 m.

MMSI: 431000667.

Date/timePositionNaut miles runAvg speedWind from/ knotsBaromVisibWave heightAir tempDewpointWater temp
2018-Feb-21 06:31N 35°28' E 139°60'0 0.0
2018-Feb-21 06:29N 35°28' E 139°60'0 0.0
2018-Feb-21 06:00N 35°28' E 139°60'0 0.0
2018-Feb-21 05:30N 35°28' E 139°60'0 0.0
2018-Feb-21 05:00N 35°28' E 139°60'0 0.0
2018-Feb-21 04:29N 35°28' E 139°60'0 0.0
2018-Feb-21 03:58N 35°28' E 139°60'0 0.0
2018-Feb-21 03:30N 35°28' E 139°60'0 0.0
2018-Feb-21 03:00N 35°28' E 139°60'0 0.0
2018-Feb-21 02:30N 35°28' E 139°60'0 0.0
2018-Feb-21 02:00N 35°28' E 139°60'0 0.0
2018-Feb-21 01:30N 35°28' E 139°60'0 0.0
2018-Feb-21 01:00N 35°28' E 139°60'0 0.0
2018-Feb-21 00:30N 35°28' E 139°60'0 0.0
2018-Feb-21 00:00N 35°28' E 139°60'0 0.1
2018-Feb-20 23:30N 35°27' E 139°60'0 0.0
2018-Feb-20 23:00N 35°27' E 139°60'0 0.0
2018-Feb-20 22:29N 35°27' E 139°60'0 0.0
2018-Feb-20 21:56N 35°27' E 139°60'0 0.1
2018-Feb-20 21:28N 35°27' E 139°60'1 0.0
2018-Feb-20 07:52N 35°28' E 139°59'2 6.8
2018-Feb-20 07:30N 35°30' E 139°57'9 9.8
2018-Feb-20 06:36N 35°34' E 139°48'1 8.3
2018-Feb-20 06:28N 35°35' E 139°47'0 0.3
2018-Feb-20 05:54N 35°35' E 139°46'0 0.0
2018-Feb-20 04:39N 35°35' E 139°46'0 0.0
2018-Feb-19 06:34N 35°35' E 139°46'0 0.0
2018-Feb-19 04:45N 35°35' E 139°46'0 0.0
2018-Feb-19 03:27N 35°35' E 139°46'0 0.0
2018-Feb-19 00:34N 35°35' E 139°46'0 0.1
2018-Feb-19 00:28N 35°35' E 139°46'0 0.0
2018-Feb-18 22:59N 35°35' E 139°46'4 9.2
2018-Feb-18 22:30N 35°33' E 139°51'5 9.7
2018-Feb-18 22:00N 35°30' E 139°56'  
2018-Feb-16 08:44N 35°27' E 139°60'0 0.0
2018-Feb-16 08:29N 35°27' E 139°60'0 0.0
2018-Feb-16 08:00N 35°27' E 139°60'0 0.0
2018-Feb-16 07:30N 35°27' E 139°60'0 0.0
2018-Feb-16 07:00N 35°27' E 139°60'0 0.0
2018-Feb-16 06:28N 35°27' E 139°60'0 0.0
2018-Feb-16 05:47N 35°27' E 139°60'0 0.0
2018-Feb-16 05:20N 35°27' E 139°60'0 0.0
2018-Feb-16 04:53N 35°27' E 139°60'0 0.0
2018-Feb-16 04:08N 35°27' E 139°60'0 0.0
2018-Feb-16 03:51N 35°27' E 139°60'1 2.9
2018-Feb-16 03:27N 35°28' E 139°59'10 8.6
2018-Feb-16 02:16N 35°34' E 139°48'2 0.0
2018-Feb-14 05:15N 35°35' E 139°46'0 0.0
2018-Feb-14 04:58N 35°35' E 139°46'0 0.0
2018-Feb-14 01:12N 35°35' E 139°46'0 0.0
2018-Feb-14 00:49N 35°35' E 139°46'0 0.0
2018-Feb-14 00:07N 35°35' E 139°46'0 0.0
2018-Feb-13 23:59N 35°35' E 139°46'2 3.9
2018-Feb-13 23:30N 35°34' E 139°49'710.7
2018-Feb-13 22:52N 35°34' E 139°57'410.7
2018-Feb-13 22:30N 35°33' E 140°02'3 0.3
2018-Feb-13 11:18N 35°32' E 140°06'0 0.0
2018-Feb-13 10:47N 35°32' E 140°06'0 0.0
2018-Feb-13 10:27N 35°32' E 140°06'0 0.0
2018-Feb-13 10:00N 35°32' E 140°06'0 0.0
2018-Feb-13 09:25N 35°32' E 140°06'0 0.0
2018-Feb-13 08:55N 35°32' E 140°06'0 0.2
2018-Feb-13 08:30N 35°32' E 140°06'4 8.0
2018-Feb-13 08:01N 35°33' E 140°01'5 9.2
2018-Feb-13 07:30N 35°34' E 139°55'  

Dump ship's entire track history